Wilton Center, Illinois
Current Conditions -  °F | °C
As of 7:35 AM on Thursday 23 Oct 2014 (Local Time) from KJOT Reporting Station
Haze Haze  
Wind Chill: 36°   Ceiling: Unl
Heat Index: 36°   Visibility: 4mi
Dew Point: 35°   Wind: 0mph
Humidity: 96%   Direction: NA
Pressure: 30.22"   Gusts: NA
Location:  41.4262°N, 87.9655°W
Report Text: KJOT 231235Z AUTO 00000KT 4SM BR CLR 02/01 A3022 RMK AO2 T00200014
Loading
Personal Weather Stations






























Interactive Weather Map
Tropical Storm Tracking
New forecast layout! Learn more

10-Day Weather Forecast

Advertisements
Track Severe Weather on mobile